sensor_id;sensor_type;location;lat;lon;timestamp;P1;durP1;ratioP1;P2;durP2;ratioP2
1545;SDS011;766;51.502;9.752;2023-04-02T00:01:46;1.75;;;1.65;;
1545;SDS011;766;51.502;9.752;2023-04-02T00:04:18;1.33;;;1.23;;
1545;SDS011;766;51.502;9.752;2023-04-02T00:06:52;1.48;;;1.38;;
1545;SDS011;766;51.502;9.752;2023-04-02T00:09:25;1.30;;;1.20;;
1545;SDS011;766;51.502;9.752;2023-04-02T00:11:57;2.22;;;1.60;;
1545;SDS011;766;51.502;9.752;2023-04-02T00:14:44;1.55;;;1.42;;
1545;SDS011;766;51.502;9.752;2023-04-02T00:17:15;1.40;;;1.30;;
1545;SDS011;766;51.502;9.752;2023-04-02T00:19:44;1.50;;;1.40;;
1545;SDS011;766;51.502;9.752;2023-04-02T00:22:17;1.90;;;1.70;;
1545;SDS011;766;51.502;9.752;2023-04-02T00:24:50;2.03;;;1.42;;
1545;SDS011;766;51.502;9.752;2023-04-02T00:27:23;1.65;;;1.33;;
1545;SDS011;766;51.502;9.752;2023-04-02T00:29:52;2.05;;;1.40;;
1545;SDS011;766;51.502;9.752;2023-04-02T00:32:23;2.15;;;1.67;;
1545;SDS011;766;51.502;9.752;2023-04-02T00:34:53;1.33;;;1.23;;
1545;SDS011;766;51.502;9.752;2023-04-02T00:37:22;1.35;;;1.25;;
1545;SDS011;766;51.502;9.752;2023-04-02T00:39:55;2.60;;;1.20;;
1545;SDS011;766;51.502;9.752;2023-04-02T00:42:31;2.03;;;1.55;;
1545;SDS011;766;51.502;9.752;2023-04-02T00:45:02;1.50;;;1.40;;
1545;SDS011;766;51.502;9.752;2023-04-02T00:47:32;1.33;;;1.20;;
1545;SDS011;766;51.502;9.752;2023-04-02T00:50:04;2.50;;;1.30;;
1545;SDS011;766;51.502;9.752;2023-04-02T00:52:45;1.52;;;1.17;;
1545;SDS011;766;51.502;9.752;2023-04-02T00:55:19;1.10;;;1.00;;
1545;SDS011;766;51.502;9.752;2023-04-02T00:57:51;2.88;;;1.50;;
1545;SDS011;766;51.502;9.752;2023-04-02T01:00:22;1.02;;;0.98;;
1545;SDS011;766;51.502;9.752;2023-04-02T01:03:14;1.00;;;0.90;;
1545;SDS011;766;51.502;9.752;2023-04-02T01:06:02;1.20;;;1.10;;
1545;SDS011;766;51.502;9.752;2023-04-02T01:08:43;0.73;;;0.73;;
1545;SDS011;766;51.502;9.752;2023-04-02T01:11:34;1.38;;;1.27;;
1545;SDS011;766;51.502;9.752;2023-04-02T01:14:15;0.80;;;0.80;;
1545;SDS011;766;51.502;9.752;2023-04-02T01:16:54;0.93;;;0.90;;
1545;SDS011;766;51.502;9.752;2023-04-02T01:19:35;1.88;;;1.05;;
1545;SDS011;766;51.502;9.752;2023-04-02T01:22:25;0.95;;;0.95;;
1545;SDS011;766;51.502;9.752;2023-04-02T01:25:01;2.05;;;1.27;;
1545;SDS011;766;51.502;9.752;2023-04-02T01:27:34;1.20;;;1.10;;
1545;SDS011;766;51.502;9.752;2023-04-02T01:30:11;1.48;;;1.13;;
1545;SDS011;766;51.502;9.752;2023-04-02T01:32:41;1.05;;;0.95;;
1545;SDS011;766;51.502;9.752;2023-04-02T01:35:11;1.20;;;1.10;;
1545;SDS011;766;51.502;9.752;2023-04-02T01:37:41;2.22;;;1.30;;
1545;SDS011;766;51.502;9.752;2023-04-02T01:40:21;1.25;;;1.10;;
1545;SDS011;766;51.502;9.752;2023-04-02T01:42:59;4.72;;;1.17;;
1545;SDS011;766;51.502;9.752;2023-04-02T01:45:36;2.65;;;1.05;;
1545;SDS011;766;51.502;9.752;2023-04-02T01:48:04;3.05;;;1.40;;
1545;SDS011;766;51.502;9.752;2023-04-02T01:50:40;1.77;;;1.50;;
1545;SDS011;766;51.502;9.752;2023-04-02T01:53:11;2.40;;;1.67;;
1545;SDS011;766;51.502;9.752;2023-04-02T01:55:43;1.45;;;1.27;;
1545;SDS011;766;51.502;9.752;2023-04-02T01:58:16;2.63;;;1.48;;
1545;SDS011;766;51.502;9.752;2023-04-02T02:00:48;2.78;;;1.27;;
1545;SDS011;766;51.502;9.752;2023-04-02T02:03:20;1.58;;;1.15;;
1545;SDS011;766;51.502;9.752;2023-04-02T02:05:49;1.48;;;1.33;;
1545;SDS011;766;51.502;9.752;2023-04-02T02:08:32;1.65;;;1.40;;
1545;SDS011;766;51.502;9.752;2023-04-02T02:11:05;2.30;;;1.55;;
1545;SDS011;766;51.502;9.752;2023-04-02T02:13:35;2.10;;;1.67;;
1545;SDS011;766;51.502;9.752;2023-04-02T02:16:09;2.33;;;1.77;;
1545;SDS011;766;51.502;9.752;2023-04-02T02:18:44;2.80;;;1.40;;
1545;SDS011;766;51.502;9.752;2023-04-02T02:21:18;1.92;;;1.50;;
1545;SDS011;766;51.502;9.752;2023-04-02T02:23:54;1.40;;;1.30;;
1545;SDS011;766;51.502;9.752;2023-04-02T02:26:24;3.50;;;1.70;;
1545;SDS011;766;51.502;9.752;2023-04-02T02:28:55;2.80;;;1.65;;
1545;SDS011;766;51.502;9.752;2023-04-02T02:31:26;2.05;;;1.70;;
1545;SDS011;766;51.502;9.752;2023-04-02T02:33:59;1.92;;;1.50;;
1545;SDS011;766;51.502;9.752;2023-04-02T02:36:34;1.77;;;1.60;;
1545;SDS011;766;51.502;9.752;2023-04-02T02:39:12;3.20;;;1.98;;
1545;SDS011;766;51.502;9.752;2023-04-02T02:41:45;3.20;;;1.80;;
1545;SDS011;766;51.502;9.752;2023-04-02T02:44:18;2.05;;;1.67;;
1545;SDS011;766;51.502;9.752;2023-04-02T02:46:52;3.28;;;1.63;;
1545;SDS011;766;51.502;9.752;2023-04-02T02:49:24;3.28;;;1.98;;
1545;SDS011;766;51.502;9.752;2023-04-02T02:51:57;3.85;;;2.05;;
1545;SDS011;766;51.502;9.752;2023-04-02T02:54:30;2.53;;;1.80;;
1545;SDS011;766;51.502;9.752;2023-04-02T02:57:01;4.18;;;1.98;;
1545;SDS011;766;51.502;9.752;2023-04-02T02:59:34;4.18;;;2.13;;
1545;SDS011;766;51.502;9.752;2023-04-02T03:02:07;4.55;;;2.28;;
1545;SDS011;766;51.502;9.752;2023-04-02T03:04:36;2.65;;;1.75;;
1545;SDS011;766;51.502;9.752;2023-04-02T03:07:05;4.50;;;1.90;;
1545;SDS011;766;51.502;9.752;2023-04-02T03:09:37;2.47;;;1.90;;
1545;SDS011;766;51.502;9.752;2023-04-02T03:12:18;2.78;;;1.92;;
1545;SDS011;766;51.502;9.752;2023-04-02T03:14:57;4.78;;;2.30;;
1545;SDS011;766;51.502;9.752;2023-04-02T03:17:31;4.70;;;2.60;;
1545;SDS011;766;51.502;9.752;2023-04-02T03:20:04;3.17;;;2.13;;
1545;SDS011;766;51.502;9.752;2023-04-02T03:22:43;3.30;;;2.33;;
1545;SDS011;766;51.502;9.752;2023-04-02T03:25:20;6.30;;;2.90;;
1545;SDS011;766;51.502;9.752;2023-04-02T03:27:54;4.22;;;2.47;;
1545;SDS011;766;51.502;9.752;2023-04-02T03:30:29;4.38;;;3.00;;
1545;SDS011;766;51.502;9.752;2023-04-02T03:33:05;3.75;;;3.00;;
1545;SDS011;766;51.502;9.752;2023-04-02T03:35:39;4.63;;;3.17;;
1545;SDS011;766;51.502;9.752;2023-04-02T03:38:12;3.97;;;2.97;;
1545;SDS011;766;51.502;9.752;2023-04-02T03:40:47;5.40;;;3.55;;
1545;SDS011;766;51.502;9.752;2023-04-02T03:43:28;5.95;;;3.70;;
1545;SDS011;766;51.502;9.752;2023-04-02T03:46:04;5.10;;;3.53;;
1545;SDS011;766;51.502;9.752;2023-04-02T03:48:46;4.82;;;2.97;;
1545;SDS011;766;51.502;9.752;2023-04-02T03:51:19;5.43;;;3.35;;
1545;SDS011;766;51.502;9.752;2023-04-02T03:53:52;6.22;;;3.42;;
1545;SDS011;766;51.502;9.752;2023-04-02T03:56:24;5.70;;;3.53;;
1545;SDS011;766;51.502;9.752;2023-04-02T03:59:01;6.00;;;3.53;;
1545;SDS011;766;51.502;9.752;2023-04-02T04:01:35;5.40;;;3.60;;
1545;SDS011;766;51.502;9.752;2023-04-02T04:04:15;6.20;;;3.88;;
1545;SDS011;766;51.502;9.752;2023-04-02T04:06:47;5.88;;;3.60;;
1545;SDS011;766;51.502;9.752;2023-04-02T04:09:19;8.05;;;3.47;;
1545;SDS011;766;51.502;9.752;2023-04-02T04:11:53;5.32;;;3.30;;
1545;SDS011;766;51.502;9.752;2023-04-02T04:14:32;6.13;;;3.38;;
1545;SDS011;766;51.502;9.752;2023-04-02T04:17:03;4.20;;;3.05;;
1545;SDS011;766;51.502;9.752;2023-04-02T04:19:41;5.18;;;3.38;;
1545;SDS011;766;51.502;9.752;2023-04-02T04:22:14;6.85;;;3.50;;
1545;SDS011;766;51.502;9.752;2023-04-02T04:24:44;4.88;;;3.38;;
1545;SDS011;766;51.502;9.752;2023-04-02T04:27:14;4.85;;;3.28;;
1545;SDS011;766;51.502;9.752;2023-04-02T04:29:51;4.25;;;3.00;;
1545;SDS011;766;51.502;9.752;2023-04-02T04:32:25;5.95;;;3.45;;
1545;SDS011;766;51.502;9.752;2023-04-02T04:35:01;5.60;;;3.67;;
1545;SDS011;766;51.502;9.752;2023-04-02T04:37:34;6.13;;;3.17;;
1545;SDS011;766;51.502;9.752;2023-04-02T04:40:09;3.40;;;2.83;;
1545;SDS011;766;51.502;9.752;2023-04-02T04:42:43;5.20;;;2.85;;
1545;SDS011;766;51.502;9.752;2023-04-02T04:45:20;6.75;;;2.50;;
1545;SDS011;766;51.502;9.752;2023-04-02T04:47:58;4.05;;;2.53;;
1545;SDS011;766;51.502;9.752;2023-04-02T04:50:31;4.13;;;3.03;;
1545;SDS011;766;51.502;9.752;2023-04-02T04:53:03;3.97;;;2.85;;
1545;SDS011;766;51.502;9.752;2023-04-02T04:55:34;5.97;;;2.92;;
1545;SDS011;766;51.502;9.752;2023-04-02T04:58:07;4.78;;;2.33;;
1545;SDS011;766;51.502;9.752;2023-04-02T05:00:45;3.63;;;2.85;;
1545;SDS011;766;51.502;9.752;2023-04-02T05:03:22;5.57;;;2.70;;
1545;SDS011;766;51.502;9.752;2023-04-02T05:06:02;5.97;;;2.90;;
1545;SDS011;766;51.502;9.752;2023-04-02T05:08:36;3.22;;;2.53;;
1545;SDS011;766;51.502;9.752;2023-04-02T05:11:12;8.25;;;2.92;;
1545;SDS011;766;51.502;9.752;2023-04-02T05:13:47;4.57;;;2.28;;
1545;SDS011;766;51.502;9.752;2023-04-02T05:16:20;4.05;;;2.47;;
1545;SDS011;766;51.502;9.752;2023-04-02T05:18:54;3.80;;;2.20;;
1545;SDS011;766;51.502;9.752;2023-04-02T05:21:27;3.83;;;2.30;;
1545;SDS011;766;51.502;9.752;2023-04-02T05:24:12;3.83;;;2.42;;
1545;SDS011;766;51.502;9.752;2023-04-02T05:27:14;4.65;;;2.38;;
1545;SDS011;766;51.502;9.752;2023-04-02T05:29:50;8.02;;;2.58;;
1545;SDS011;766;51.502;9.752;2023-04-02T05:32:24;3.63;;;2.25;;
1545;SDS011;766;51.502;9.752;2023-04-02T05:34:56;4.38;;;2.15;;
1545;SDS011;766;51.502;9.752;2023-04-02T05:37:27;2.80;;;2.25;;
1545;SDS011;766;51.502;9.752;2023-04-02T05:39:57;3.55;;;2.17;;
1545;SDS011;766;51.502;9.752;2023-04-02T05:42:33;2.30;;;1.90;;
1545;SDS011;766;51.502;9.752;2023-04-02T05:45:07;3.70;;;2.13;;
1545;SDS011;766;51.502;9.752;2023-04-02T05:47:44;5.32;;;2.15;;
1545;SDS011;766;51.502;9.752;2023-04-02T05:50:18;4.22;;;2.25;;
1545;SDS011;766;51.502;9.752;2023-04-02T05:52:54;6.30;;;1.88;;
1545;SDS011;766;51.502;9.752;2023-04-02T05:55:31;2.75;;;1.55;;
1545;SDS011;766;51.502;9.752;2023-04-02T05:58:05;3.15;;;1.90;;
1545;SDS011;766;51.502;9.752;2023-04-02T06:04:04;4.13;;;1.75;;
1545;SDS011;766;51.502;9.752;2023-04-02T06:06:42;4.03;;;1.70;;
1545;SDS011;766;51.502;9.752;2023-04-02T06:09:18;1.52;;;1.42;;
1545;SDS011;766;51.502;9.752;2023-04-02T06:11:54;2.30;;;1.60;;
1545;SDS011;766;51.502;9.752;2023-04-02T06:14:27;2.95;;;1.58;;
1545;SDS011;766;51.502;9.752;2023-04-02T06:16:55;2.75;;;1.60;;
1545;SDS011;766;51.502;9.752;2023-04-02T06:19:24;2.67;;;1.40;;
1545;SDS011;766;51.502;9.752;2023-04-02T06:21:58;1.33;;;1.23;;
1545;SDS011;766;51.502;9.752;2023-04-02T06:24:36;1.83;;;1.20;;
1545;SDS011;766;51.502;9.752;2023-04-02T06:27:07;5.22;;;1.40;;
1545;SDS011;766;51.502;9.752;2023-04-02T06:29:41;2.35;;;1.10;;
1545;SDS011;766;51.502;9.752;2023-04-02T06:32:13;1.40;;;1.23;;
1545;SDS011;766;51.502;9.752;2023-04-02T06:34:41;1.55;;;1.20;;
1545;SDS011;766;51.502;9.752;2023-04-02T06:37:12;1.50;;;1.40;;
1545;SDS011;766;51.502;9.752;2023-04-02T06:39:47;2.08;;;1.42;;
1545;SDS011;766;51.502;9.752;2023-04-02T06:42:16;2.00;;;1.40;;
1545;SDS011;766;51.502;9.752;2023-04-02T06:44:47;2.38;;;0.98;;
1545;SDS011;766;51.502;9.752;2023-04-02T06:47:25;1.38;;;1.23;;
1545;SDS011;766;51.502;9.752;2023-04-02T06:50:24;1.60;;;1.17;;
1545;SDS011;766;51.502;9.752;2023-04-02T06:52:57;2.72;;;1.60;;
1545;SDS011;766;51.502;9.752;2023-04-02T06:55:30;2.13;;;1.20;;
1545;SDS011;766;51.502;9.752;2023-04-02T06:58:07;2.00;;;1.15;;
1545;SDS011;766;51.502;9.752;2023-04-02T07:00:40;1.40;;;1.17;;
1545;SDS011;766;51.502;9.752;2023-04-02T07:03:12;1.30;;;1.20;;
1545;SDS011;766;51.502;9.752;2023-04-02T07:05:42;2.85;;;1.50;;
1545;SDS011;766;51.502;9.752;2023-04-02T07:08:10;2.38;;;1.58;;
1545;SDS011;766;51.502;9.752;2023-04-02T07:10:40;2.35;;;1.52;;
1545;SDS011;766;51.502;9.752;2023-04-02T07:13:09;2.35;;;1.50;;
1545;SDS011;766;51.502;9.752;2023-04-02T07:15:42;4.18;;;1.80;;
1545;SDS011;766;51.502;9.752;2023-04-02T07:18:14;2.70;;;1.73;;
1545;SDS011;766;51.502;9.752;2023-04-02T07:20:50;2.80;;;1.80;;
1545;SDS011;766;51.502;9.752;2023-04-02T07:23:19;2.67;;;1.50;;
1545;SDS011;766;51.502;9.752;2023-04-02T07:25:49;2.40;;;1.50;;
1545;SDS011;766;51.502;9.752;2023-04-02T07:28:20;1.88;;;1.40;;
1545;SDS011;766;51.502;9.752;2023-04-02T07:30:49;1.98;;;1.30;;
1545;SDS011;766;51.502;9.752;2023-04-02T07:33:18;1.52;;;1.17;;
1545;SDS011;766;51.502;9.752;2023-04-02T07:35:49;1.73;;;1.27;;
1545;SDS011;766;51.502;9.752;2023-04-02T07:38:18;3.13;;;1.73;;
1545;SDS011;766;51.502;9.752;2023-04-02T07:40:47;2.38;;;1.30;;
1545;SDS011;766;51.502;9.752;2023-04-02T07:43:17;2.72;;;1.27;;
1545;SDS011;766;51.502;9.752;2023-04-02T07:45:48;3.63;;;1.67;;
1545;SDS011;766;51.502;9.752;2023-04-02T07:48:17;2.60;;;1.50;;
1545;SDS011;766;51.502;9.752;2023-04-02T07:50:49;3.45;;;1.88;;
1545;SDS011;766;51.502;9.752;2023-04-02T07:53:25;3.13;;;1.38;;
1545;SDS011;766;51.502;9.752;2023-04-02T07:55:56;2.58;;;1.30;;
1545;SDS011;766;51.502;9.752;2023-04-02T07:58:28;3.60;;;1.33;;
1545;SDS011;766;51.502;9.752;2023-04-02T08:00:57;2.00;;;1.23;;
1545;SDS011;766;51.502;9.752;2023-04-02T08:03:26;4.10;;;1.67;;
1545;SDS011;766;51.502;9.752;2023-04-02T08:05:56;2.25;;;1.35;;
1545;SDS011;766;51.502;9.752;2023-04-02T08:08:25;2.72;;;1.60;;
1545;SDS011;766;51.502;9.752;2023-04-02T08:10:53;2.72;;;1.42;;
1545;SDS011;766;51.502;9.752;2023-04-02T08:13:22;2.08;;;1.35;;
1545;SDS011;766;51.502;9.752;2023-04-02T08:15:51;5.28;;;1.38;;
1545;SDS011;766;51.502;9.752;2023-04-02T08:18:20;2.97;;;1.58;;
1545;SDS011;766;51.502;9.752;2023-04-02T08:20:48;5.57;;;1.58;;
1545;SDS011;766;51.502;9.752;2023-04-02T08:23:18;4.75;;;1.60;;
1545;SDS011;766;51.502;9.752;2023-04-02T08:25:47;3.00;;;1.20;;
1545;SDS011;766;51.502;9.752;2023-04-02T08:28:16;3.05;;;1.50;;
1545;SDS011;766;51.502;9.752;2023-04-02T08:30:44;2.53;;;1.35;;
1545;SDS011;766;51.502;9.752;2023-04-02T08:33:15;2.88;;;1.10;;
1545;SDS011;766;51.502;9.752;2023-04-02T08:35:44;3.42;;;1.50;;
1545;SDS011;766;51.502;9.752;2023-04-02T08:38:15;4.65;;;1.83;;
1545;SDS011;766;51.502;9.752;2023-04-02T08:40:45;4.05;;;1.65;;
1545;SDS011;766;51.502;9.752;2023-04-02T08:43:24;6.97;;;1.95;;
1545;SDS011;766;51.502;9.752;2023-04-02T08:46:05;4.20;;;1.88;;
1545;SDS011;766;51.502;9.752;2023-04-02T08:48:43;3.08;;;1.48;;
1545;SDS011;766;51.502;9.752;2023-04-02T08:51:18;7.13;;;1.58;;
1545;SDS011;766;51.502;9.752;2023-04-02T08:53:50;2.38;;;1.58;;
1545;SDS011;766;51.502;9.752;2023-04-02T08:56:24;2.45;;;1.58;;
1545;SDS011;766;51.502;9.752;2023-04-02T08:59:06;4.10;;;1.83;;
1545;SDS011;766;51.502;9.752;2023-04-02T09:01:43;4.75;;;1.45;;
1545;SDS011;766;51.502;9.752;2023-04-02T09:04:19;1.92;;;1.60;;
1545;SDS011;766;51.502;9.752;2023-04-02T09:06:51;3.35;;;1.80;;
1545;SDS011;766;51.502;9.752;2023-04-02T09:09:25;3.13;;;1.67;;
1545;SDS011;766;51.502;9.752;2023-04-02T09:11:54;8.48;;;1.83;;
1545;SDS011;766;51.502;9.752;2023-04-02T09:14:29;6.03;;;1.70;;
1545;SDS011;766;51.502;9.752;2023-04-02T09:17:07;5.38;;;1.52;;
1545;SDS011;766;51.502;9.752;2023-04-02T09:19:48;3.28;;;1.33;;
1545;SDS011;766;51.502;9.752;2023-04-02T09:22:25;3.72;;;1.70;;
1545;SDS011;766;51.502;9.752;2023-04-02T09:24:58;5.05;;;2.00;;
1545;SDS011;766;51.502;9.752;2023-04-02T09:27:29;2.40;;;1.50;;
1545;SDS011;766;51.502;9.752;2023-04-02T09:29:59;6.07;;;1.67;;
1545;SDS011;766;51.502;9.752;2023-04-02T09:32:36;2.88;;;1.20;;
1545;SDS011;766;51.502;9.752;2023-04-02T09:35:14;6.82;;;2.10;;
1545;SDS011;766;51.502;9.752;2023-04-02T09:38:15;6.07;;;1.50;;
1545;SDS011;766;51.502;9.752;2023-04-02T09:40:47;3.05;;;1.65;;
1545;SDS011;766;51.502;9.752;2023-04-02T09:43:21;5.65;;;1.65;;
1545;SDS011;766;51.502;9.752;2023-04-02T09:45:55;5.38;;;1.58;;
1545;SDS011;766;51.502;9.752;2023-04-02T09:48:26;3.22;;;1.67;;
1545;SDS011;766;51.502;9.752;2023-04-02T09:51:10;4.60;;;1.60;;
1545;SDS011;766;51.502;9.752;2023-04-02T09:53:42;2.47;;;1.42;;
1545;SDS011;766;51.502;9.752;2023-04-02T09:56:16;5.10;;;1.58;;
1545;SDS011;766;51.502;9.752;2023-04-02T09:59:00;3.55;;;1.40;;
1545;SDS011;766;51.502;9.752;2023-04-02T10:01:31;2.50;;;1.58;;
1545;SDS011;766;51.502;9.752;2023-04-02T10:04:01;5.43;;;1.63;;
1545;SDS011;766;51.502;9.752;2023-04-02T10:06:32;10.32;;;1.92;;
1545;SDS011;766;51.502;9.752;2023-04-02T10:09:17;3.58;;;1.80;;
1545;SDS011;766;51.502;9.752;2023-04-02T10:11:48;2.60;;;1.52;;
1545;SDS011;766;51.502;9.752;2023-04-02T10:14:18;4.30;;;2.47;;
1545;SDS011;766;51.502;9.752;2023-04-02T10:16:51;3.33;;;1.42;;
1545;SDS011;766;51.502;9.752;2023-04-02T10:19:25;3.42;;;1.70;;
1545;SDS011;766;51.502;9.752;2023-04-02T10:21:59;5.35;;;1.63;;
1545;SDS011;766;51.502;9.752;2023-04-02T10:24:30;3.13;;;1.80;;
1545;SDS011;766;51.502;9.752;2023-04-02T10:27:05;3.47;;;1.88;;
1545;SDS011;766;51.502;9.752;2023-04-02T10:29:45;3.70;;;1.40;;
1545;SDS011;766;51.502;9.752;2023-04-02T10:32:29;3.50;;;1.88;;
1545;SDS011;766;51.502;9.752;2023-04-02T10:35:03;4.05;;;1.65;;
1545;SDS011;766;51.502;9.752;2023-04-02T10:40:43;3.22;;;1.50;;
1545;SDS011;766;51.502;9.752;2023-04-02T10:43:31;8.00;;;3.42;;
1545;SDS011;766;51.502;9.752;2023-04-02T10:46:13;3.50;;;1.50;;
1545;SDS011;766;51.502;9.752;2023-04-02T10:48:53;5.53;;;2.55;;
1545;SDS011;766;51.502;9.752;2023-04-02T10:51:32;4.25;;;1.63;;
1545;SDS011;766;51.502;9.752;2023-04-02T10:54:11;2.42;;;1.38;;
1545;SDS011;766;51.502;9.752;2023-04-02T10:56:47;5.72;;;1.75;;
1545;SDS011;766;51.502;9.752;2023-04-02T10:59:20;5.82;;;1.90;;
1545;SDS011;766;51.502;9.752;2023-04-02T11:01:51;3.30;;;1.40;;
1545;SDS011;766;51.502;9.752;2023-04-02T11:04:24;5.20;;;1.45;;
1545;SDS011;766;51.502;9.752;2023-04-02T11:06:58;2.20;;;1.40;;
1545;SDS011;766;51.502;9.752;2023-04-02T11:09:42;3.88;;;1.30;;
1545;SDS011;766;51.502;9.752;2023-04-02T11:12:16;4.95;;;1.35;;
1545;SDS011;766;51.502;9.752;2023-04-02T11:14:49;1.98;;;1.38;;
1545;SDS011;766;51.502;9.752;2023-04-02T11:17:20;4.32;;;1.70;;
1545;SDS011;766;51.502;9.752;2023-04-02T11:19:49;3.15;;;1.30;;
1545;SDS011;766;51.502;9.752;2023-04-02T11:22:18;4.78;;;1.88;;
1545;SDS011;766;51.502;9.752;2023-04-02T11:24:49;5.45;;;2.20;;
1545;SDS011;766;51.502;9.752;2023-04-02T11:27:21;3.08;;;1.38;;
1545;SDS011;766;51.502;9.752;2023-04-02T11:29:54;3.05;;;1.90;;
1545;SDS011;766;51.502;9.752;2023-04-02T11:32:30;6.35;;;1.80;;
1545;SDS011;766;51.502;9.752;2023-04-02T11:37:58;3.70;;;2.03;;
1545;SDS011;766;51.502;9.752;2023-04-02T11:52:21;7.15;;;1.75;;
1545;SDS011;766;51.502;9.752;2023-04-02T11:54:59;4.88;;;1.63;;
1545;SDS011;766;51.502;9.752;2023-04-02T11:57:38;3.88;;;1.42;;
1545;SDS011;766;51.502;9.752;2023-04-02T12:00:29;3.95;;;1.58;;
1545;SDS011;766;51.502;9.752;2023-04-02T12:03:20;3.20;;;1.60;;
1545;SDS011;766;51.502;9.752;2023-04-02T12:06:08;1.42;;;1.08;;
1545;SDS011;766;51.502;9.752;2023-04-02T12:08:46;2.50;;;1.00;;
1545;SDS011;766;51.502;9.752;2023-04-02T12:11:29;3.30;;;1.25;;
1545;SDS011;766;51.502;9.752;2023-04-02T12:14:01;4.70;;;1.25;;
1545;SDS011;766;51.502;9.752;2023-04-02T12:16:53;3.17;;;1.17;;
1545;SDS011;766;51.502;9.752;2023-04-02T12:19:22;1.77;;;1.10;;
1545;SDS011;766;51.502;9.752;2023-04-02T12:21:51;3.95;;;1.20;;
1545;SDS011;766;51.502;9.752;2023-04-02T12:24:20;2.45;;;1.38;;
1545;SDS011;766;51.502;9.752;2023-04-02T12:27:05;4.97;;;1.70;;
1545;SDS011;766;51.502;9.752;2023-04-02T12:29:42;3.70;;;1.20;;
1545;SDS011;766;51.502;9.752;2023-04-02T12:32:16;4.82;;;1.15;;
1545;SDS011;766;51.502;9.752;2023-04-02T12:34:48;3.58;;;1.30;;
1545;SDS011;766;51.502;9.752;2023-04-02T12:37:27;3.67;;;1.30;;
1545;SDS011;766;51.502;9.752;2023-04-02T12:40:15;4.15;;;1.48;;
1545;SDS011;766;51.502;9.752;2023-04-02T12:42:44;7.05;;;1.63;;
1545;SDS011;766;51.502;9.752;2023-04-02T12:45:22;4.97;;;1.30;;
1545;SDS011;766;51.502;9.752;2023-04-02T12:47:55;2.67;;;1.20;;
1545;SDS011;766;51.502;9.752;2023-04-02T12:50:26;2.45;;;0.90;;
1545;SDS011;766;51.502;9.752;2023-04-02T12:52:54;2.85;;;1.20;;
1545;SDS011;766;51.502;9.752;2023-04-02T12:55:24;2.13;;;1.20;;
1545;SDS011;766;51.502;9.752;2023-04-02T12:57:54;2.75;;;1.20;;
1545;SDS011;766;51.502;9.752;2023-04-02T13:00:32;4.43;;;1.40;;
1545;SDS011;766;51.502;9.752;2023-04-02T13:03:14;5.45;;;1.27;;
1545;SDS011;766;51.502;9.752;2023-04-02T13:05:48;3.20;;;1.40;;
1545;SDS011;766;51.502;9.752;2023-04-02T13:08:22;3.63;;;1.33;;
1545;SDS011;766;51.502;9.752;2023-04-02T13:10:54;4.32;;;1.23;;
1545;SDS011;766;51.502;9.752;2023-04-02T13:13:25;3.38;;;1.30;;
1545;SDS011;766;51.502;9.752;2023-04-02T13:16:01;2.97;;;1.25;;
1545;SDS011;766;51.502;9.752;2023-04-02T13:18:32;3.08;;;1.50;;
1545;SDS011;766;51.502;9.752;2023-04-02T13:21:03;3.50;;;1.80;;
1545;SDS011;766;51.502;9.752;2023-04-02T13:23:36;5.93;;;1.30;;
1545;SDS011;766;51.502;9.752;2023-04-02T13:26:16;4.00;;;1.42;;
1545;SDS011;766;51.502;9.752;2023-04-02T13:29:00;5.55;;;1.30;;
1545;SDS011;766;51.502;9.752;2023-04-02T13:31:31;4.43;;;1.50;;
1545;SDS011;766;51.502;9.752;2023-04-02T13:34:00;3.00;;;1.30;;
1545;SDS011;766;51.502;9.752;2023-04-02T13:36:28;4.40;;;1.25;;
1545;SDS011;766;51.502;9.752;2023-04-02T13:38:57;3.58;;;1.17;;
1545;SDS011;766;51.502;9.752;2023-04-02T13:41:26;3.10;;;1.23;;
1545;SDS011;766;51.502;9.752;2023-04-02T13:43:56;3.80;;;1.27;;
1545;SDS011;766;51.502;9.752;2023-04-02T13:46:31;3.28;;;1.27;;
1545;SDS011;766;51.502;9.752;2023-04-02T13:49:01;4.43;;;1.25;;
1545;SDS011;766;51.502;9.752;2023-04-02T13:51:32;4.35;;;2.08;;
1545;SDS011;766;51.502;9.752;2023-04-02T13:54:04;5.28;;;1.25;;
1545;SDS011;766;51.502;9.752;2023-04-02T13:56:35;5.22;;;1.30;;
1545;SDS011;766;51.502;9.752;2023-04-02T13:59:05;3.33;;;1.60;;
1545;SDS011;766;51.502;9.752;2023-04-02T14:01:34;3.47;;;1.15;;
1545;SDS011;766;51.502;9.752;2023-04-02T14:04:06;2.33;;;1.20;;
1545;SDS011;766;51.502;9.752;2023-04-02T14:06:46;3.95;;;1.27;;
1545;SDS011;766;51.502;9.752;2023-04-02T14:09:44;2.35;;;1.10;;
1545;SDS011;766;51.502;9.752;2023-04-02T14:12:26;3.88;;;1.15;;
1545;SDS011;766;51.502;9.752;2023-04-02T14:15:08;2.95;;;1.40;;
1545;SDS011;766;51.502;9.752;2023-04-02T14:17:58;6.18;;;1.05;;
1545;SDS011;766;51.502;9.752;2023-04-02T14:20:41;2.45;;;0.93;;
1545;SDS011;766;51.502;9.752;2023-04-02T14:23:21;6.80;;;1.40;;
1545;SDS011;766;51.502;9.752;2023-04-02T14:26:03;3.90;;;1.60;;
1545;SDS011;766;51.502;9.752;2023-04-02T14:28:40;2.55;;;1.00;;
1545;SDS011;766;51.502;9.752;2023-04-02T14:31:16;1.75;;;0.95;;
1545;SDS011;766;51.502;9.752;2023-04-02T14:33:56;2.15;;;1.00;;
1545;SDS011;766;51.502;9.752;2023-04-02T14:36:30;1.75;;;1.08;;
1545;SDS011;766;51.502;9.752;2023-04-02T14:39:07;3.17;;;1.08;;
1545;SDS011;766;51.502;9.752;2023-04-02T14:41:42;3.05;;;1.10;;
1545;SDS011;766;51.502;9.752;2023-04-02T14:44:19;3.22;;;1.10;;
1545;SDS011;766;51.502;9.752;2023-04-02T14:46:52;2.30;;;1.20;;
1545;SDS011;766;51.502;9.752;2023-04-02T14:49:29;3.85;;;0.90;;
1545;SDS011;766;51.502;9.752;2023-04-02T14:52:08;3.90;;;1.10;;
1545;SDS011;766;51.502;9.752;2023-04-02T14:54:42;1.15;;;0.90;;
1545;SDS011;766;51.502;9.752;2023-04-02T14:57:18;10.60;;;1.15;;
1545;SDS011;766;51.502;9.752;2023-04-02T14:59:56;3.25;;;1.20;;
1545;SDS011;766;51.502;9.752;2023-04-02T15:02:29;2.38;;;1.15;;
1545;SDS011;766;51.502;9.752;2023-04-02T15:05:10;2.55;;;1.00;;
1545;SDS011;766;51.502;9.752;2023-04-02T15:07:44;2.65;;;0.90;;
1545;SDS011;766;51.502;9.752;2023-04-02T15:10:19;5.18;;;1.33;;
1545;SDS011;766;51.502;9.752;2023-04-02T15:12:57;2.13;;;1.27;;
1545;SDS011;766;51.502;9.752;2023-04-02T15:15:33;3.80;;;1.60;;
1545;SDS011;766;51.502;9.752;2023-04-02T15:18:08;1.48;;;0.77;;
1545;SDS011;766;51.502;9.752;2023-04-02T15:20:43;3.15;;;1.10;;
1545;SDS011;766;51.502;9.752;2023-04-02T15:23:20;3.65;;;1.10;;
1545;SDS011;766;51.502;9.752;2023-04-02T15:26:00;1.70;;;0.90;;
1545;SDS011;766;51.502;9.752;2023-04-02T15:28:34;2.42;;;0.90;;
1545;SDS011;766;51.502;9.752;2023-04-02T15:31:10;3.30;;;0.80;;
1545;SDS011;766;51.502;9.752;2023-04-02T15:33:40;4.28;;;1.00;;
1545;SDS011;766;51.502;9.752;2023-04-02T15:39:33;2.85;;;1.13;;
1545;SDS011;766;51.502;9.752;2023-04-02T15:42:12;2.90;;;1.25;;
1545;SDS011;766;51.502;9.752;2023-04-02T15:44:50;1.42;;;0.93;;
1545;SDS011;766;51.502;9.752;2023-04-02T15:47:37;2.20;;;1.27;;
1545;SDS011;766;51.502;9.752;2023-04-02T15:50:15;4.72;;;1.40;;
1545;SDS011;766;51.502;9.752;2023-04-02T15:53:05;4.13;;;1.35;;
1545;SDS011;766;51.502;9.752;2023-04-02T15:55:40;2.92;;;1.20;;
1545;SDS011;766;51.502;9.752;2023-04-02T15:58:27;4.85;;;1.45;;
1545;SDS011;766;51.502;9.752;2023-04-02T16:01:06;2.58;;;1.83;;
1545;SDS011;766;51.502;9.752;2023-04-02T16:03:48;4.97;;;1.40;;
1545;SDS011;766;51.502;9.752;2023-04-02T16:06:40;8.25;;;2.00;;
1545;SDS011;766;51.502;9.752;2023-04-02T16:09:21;4.00;;;1.00;;
1545;SDS011;766;51.502;9.752;2023-04-02T16:11:57;5.40;;;1.90;;
1545;SDS011;766;51.502;9.752;2023-04-02T16:14:35;2.42;;;1.08;;
1545;SDS011;766;51.502;9.752;2023-04-02T16:17:05;4.68;;;1.80;;
1545;SDS011;766;51.502;9.752;2023-04-02T16:19:51;3.67;;;1.23;;
1545;SDS011;766;51.502;9.752;2023-04-02T16:22:24;2.95;;;1.60;;
1545;SDS011;766;51.502;9.752;2023-04-02T16:24:59;2.75;;;1.40;;
1545;SDS011;766;51.502;9.752;2023-04-02T16:27:30;5.55;;;1.38;;
1545;SDS011;766;51.502;9.752;2023-04-02T16:30:18;4.60;;;1.10;;
1545;SDS011;766;51.502;9.752;2023-04-02T16:33:03;2.67;;;1.30;;
1545;SDS011;766;51.502;9.752;2023-04-02T16:35:42;3.55;;;1.20;;
1545;SDS011;766;51.502;9.752;2023-04-02T16:38:27;4.30;;;1.40;;
1545;SDS011;766;51.502;9.752;2023-04-02T16:41:09;2.80;;;0.90;;
1545;SDS011;766;51.502;9.752;2023-04-02T16:43:48;4.68;;;1.35;;